Time;durP1;ratioP1;P1;durP2;ratioP2;P2;SDS_P1;SDS_P2;PMS_P1;PMS_P2;Temp;Humidity;BMP_temperature;BMP_pressure;BME280_temperature;BME280_humidity;BME280_pressure;Samples;Min_cycle;Max_cycle;Signal;HPM_P1;HPM_P2
2022/01/25 00:08:54;;;;;;;23.20;9.48;;;-0.70;99.90;;;-0.71;90.77;99411.31;174569;28;837;-77
2022/01/25 00:09:19;;;;;;;21.92;9.54;;;-0.70;99.90;;;-0.64;90.44;99412.75;173207;28;1524;-78
2022/01/25 00:10:16;;;;;;;21.60;9.94;;;-0.70;99.90;;;-0.67;90.73;99405.78;172989;28;1252;-77
2022/01/25 00:15:54;;;;;;;22.57;9.50;;;-0.60;99.90;;;-0.55;90.19;99407.88;172572;28;1077;-78
2022/01/25 00:24:20;;;;;;;22.33;9.51;;;-0.70;99.90;;;-0.85;90.44;99385.50;173319;28;1227;-77
2022/01/25 00:24:33;;;;;;;22.58;9.09;;;-0.70;99.90;;;-0.93;90.58;99369.09;173838;28;1227;-77
2022/01/25 00:26:29;;;;;;;21.90;9.50;;;-0.70;99.90;;;-0.87;90.59;99384.69;169742;29;1577;-77
2022/01/25 00:26:39;;;;;;;21.41;9.46;;;-0.70;99.90;;;-0.88;90.75;99383.84;171733;28;1344;-78
2022/01/25 00:27:09;;;;;;;20.59;9.85;;;-0.70;99.90;;;-0.90;90.59;99375.13;171662;28;1526;-77
2022/01/25 00:27:40;;;;;;;20.73;8.88;;;-0.70;99.90;;;-0.83;90.66;99377.50;171184;28;1086;-78
2022/01/25 00:27:53;;;;;;;21.25;9.18;;;-0.70;99.90;;;-0.82;90.59;99382.69;170716;28;1520;-78
2022/01/25 00:28:20;;;;;;;19.94;9.20;;;-0.70;99.90;;;-0.92;90.84;99361.13;170542;29;1214;-78
2022/01/25 00:28:47;;;;;;;19.27;9.50;;;-0.80;99.90;;;-0.86;90.81;99368.78;174725;28;642;-78
2022/01/25 00:29:28;;;;;;;19.17;8.65;;;-0.70;99.90;;;-0.86;90.54;99376.72;173927;28;974;-78
2022/01/25 00:29:48;;;;;;;19.06;8.68;;;-0.70;99.90;;;-0.98;90.77;99361.38;173817;28;1595;-78
2022/01/25 00:30:23;;;;;;;17.95;8.55;;;-0.80;99.90;;;-0.83;90.88;99380.16;173243;28;827;-77
2022/01/25 00:30:42;;;;;;;19.27;8.86;;;-0.80;99.90;;;-0.75;90.32;99399.16;172341;28;1207;-77
2022/01/25 00:31:16;;;;;;;21.10;9.38;;;-0.70;99.90;;;-0.77;90.05;99386.00;171920;28;1201;-77
2022/01/25 00:31:24;;;;;;;19.67;9.30;;;-0.70;99.90;;;-0.79;90.46;99387.00;173302;28;962;-78
2022/01/25 00:31:33;;;;;;;18.53;9.13;;;-0.70;99.90;;;-0.70;90.08;99399.78;174534;28;1528;-78
2022/01/25 00:31:42;;;;;;;19.53;9.37;;;-0.70;99.90;;;-0.90;90.17;99366.34;174753;28;859;-78
2022/01/25 00:31:48;;;;;;;19.33;9.07;;;-0.70;99.90;;;-0.74;90.06;99401.75;173513;28;1512;-77
2022/01/25 00:31:54;;;;;;;18.55;8.65;;;-0.70;99.90;;;-0.69;90.30;99406.81;173131;28;1573;-77
2022/01/25 00:32:01;;;;;;;19.20;8.70;;;-0.70;99.90;;;-0.78;90.24;99391.38;175274;28;1423;-77
2022/01/25 00:32:07;;;;;;;20.37;8.77;;;-0.70;99.90;;;-0.73;90.14;99392.03;173075;28;1723;-77
2022/01/25 00:32:16;;;;;;;21.22;9.00;;;-0.70;99.90;;;-0.74;89.93;99396.44;172945;28;1385;-77
2022/01/25 00:32:23;;;;;;;21.63;9.27;;;-0.70;99.90;;;-0.82;90.12;99380.06;174695;28;891;-77
2022/01/25 00:32:29;;;;;;;21.56;9.42;;;-0.70;99.90;;;-0.81;90.06;99375.63;174535;28;1352;-77
2022/01/25 00:32:35;;;;;;;20.05;9.25;;;-0.70;99.90;;;-0.92;90.04;99358.47;173153;28;1097;-77
2022/01/25 00:32:41;;;;;;;20.08;9.43;;;-0.70;99.90;;;-0.69;90.16;99396.22;174582;28;1381;-77
2022/01/25 00:32:47;;;;;;;18.90;9.40;;;-0.70;99.90;;;-0.88;90.30;99361.81;174622;28;879;-77
2022/01/25 00:32:53;;;;;;;18.60;9.57;;;-0.70;99.90;;;-0.69;90.31;99394.44;173189;28;1200;-77
2022/01/25 00:32:59;;;;;;;18.73;9.23;;;-0.70;99.90;;;-0.70;90.38;99391.88;173169;28;1314;-77
2022/01/25 00:33:05;;;;;;;19.58;9.35;;;-0.70;99.90;;;-0.68;90.41;99400.59;173828;28;1192;-77
2022/01/25 00:33:11;;;;;;;19.53;9.50;;;-0.70;99.90;;;-0.84;90.17;99365.22;173888;28;1333;-77
2022/01/25 00:33:17;;;;;;;19.77;9.32;;;-0.70;99.90;;;-0.97;89.96;99343.75;173160;28;1332;-77
2022/01/25 00:33:24;;;;;;;19.15;9.00;;;-0.70;99.90;;;-0.71;90.40;99382.22;173857;28;1210;-77
2022/01/25 00:33:33;;;;;;;19.17;9.23;;;-0.70;99.90;;;-0.65;90.06;99390.72;172498;28;1228;-77
2022/01/25 00:33:48;;;;;;;18.91;9.03;;;-0.70;99.90;;;-0.67;89.89;99389.06;173241;28;1322;-77
2022/01/25 00:33:54;;;;;;;19.84;8.91;;;-0.70;99.90;;;-0.64;90.18;99397.75;173212;28;1218;-77
2022/01/25 00:34:00;;;;;;;20.15;8.88;;;-0.70;99.90;;;-0.63;90.34;99391.53;171964;28;994;-77
2022/01/25 00:34:08;;;;;;;18.70;8.67;;;-0.70;99.90;;;-0.61;90.10;99397.59;171238;28;813;-77
2022/01/25 00:34:14;;;;;;;17.87;8.62;;;-0.60;99.90;;;-0.64;90.08;99386.31;171813;28;1428;-77
2022/01/25 00:34:20;;;;;;;17.80;8.68;;;-0.60;99.90;;;-0.76;89.93;99371.00;173205;28;1252;-77
2022/01/25 00:34:26;;;;;;;17.48;8.50;;;-0.60;99.90;;;-0.71;90.30;99377.78;172490;28;1364;-77
2022/01/25 00:34:32;;;;;;;17.57;8.40;;;-0.70;99.90;;;-0.66;90.15;99389.00;173111;28;1673;-77
2022/01/25 00:34:39;;;;;;;19.80;8.80;;;-0.70;99.90;;;-0.73;90.11;99368.22;173266;28;851;-77
2022/01/25 00:34:45;;;;;;;19.60;8.70;;;-0.60;99.90;;;-0.60;89.81;99388.72;171861;28;942;-76
2022/01/25 00:34:51;;;;;;;20.40;9.07;;;-0.60;99.90;;;-0.64;90.18;99386.31;173192;28;1486;-77
2022/01/25 00:34:57;;;;;;;20.24;8.98;;;-0.60;99.90;;;-0.72;90.16;99367.25;173185;28;1434;-77
2022/01/25 00:35:04;;;;;;;19.85;8.98;;;-0.60;99.90;;;-0.79;89.72;99361.44;171830;28;1294;-77
2022/01/25 00:35:10;;;;;;;19.14;8.72;;;-0.60;99.90;;;-0.67;90.08;99378.50;171240;28;1291;-77
2022/01/25 00:35:16;;;;;;;20.57;9.00;;;-0.70;99.90;;;-0.65;90.15;99382.78;172478;28;1441;-76
2022/01/25 00:35:23;;;;;;;20.13;8.73;;;-0.60;99.90;;;-0.64;89.54;99381.00;173144;28;1547;-77
2022/01/25 00:35:29;;;;;;;20.13;8.90;;;-0.60;99.90;;;-0.62;89.71;99382.63;173130;28;1354;-77
2022/01/25 00:35:35;;;;;;;20.40;9.18;;;-0.60;99.90;;;-0.61;89.90;99384.34;173198;28;835;-77
2022/01/25 00:35:41;;;;;;;20.67;9.30;;;-0.60;99.90;;;-0.71;89.63;99368.97;172510;28;1196;-77
2022/01/25 00:35:47;;;;;;;19.08;9.23;;;-0.60;99.90;;;-0.68;89.75;99374.16;173223;28;1195;-77
2022/01/25 00:35:53;;;;;;;19.15;9.20;;;-0.60;99.90;;;-0.71;89.92;99366.34;171882;28;948;-77
2022/01/25 00:36:02;;;;;;;19.95;9.20;;;-0.60;99.90;;;-0.60;89.65;99385.22;171833;28;1478;-77
2022/01/25 00:36:14;;;;;;;19.84;8.94;;;-0.60;99.90;;;-0.65;89.69;99374.84;173785;28;1414;-77
2022/01/25 00:36:25;;;;;;;21.44;8.99;;;-0.60;99.90;;;-0.71;89.95;99364.56;173206;28;1618;-77
2022/01/25 00:36:32;;;;;;;22.27;8.90;;;-0.60;99.90;;;-0.75;89.71;99368.28;173192;28;1146;-77
2022/01/25 00:36:38;;;;;;;21.53;8.67;;;-0.60;99.90;;;-0.66;89.92;99383.72;171808;28;1247;-77
2022/01/25 00:36:44;;;;;;;20.88;8.55;;;-0.60;99.90;;;-0.77;89.59;99367.47;172455;28;1214;-77
2022/01/25 00:36:49;;;;;;;20.30;8.43;;;-0.70;99.90;;;-0.62;89.89;99387.09;171117;28;1308;-77
2022/01/25 00:36:55;;;;;;;19.60;8.60;;;-0.60;99.90;;;-0.64;89.99;99383.66;173148;28;1310;-77
2022/01/25 00:37:02;;;;;;;19.40;8.90;;;-0.70;99.90;;;-0.67;89.87;99378.50;173902;28;1223;-77
2022/01/25 00:37:08;;;;;;;20.66;9.08;;;-0.60;99.90;;;-0.72;89.57;99378.69;173152;28;1286;-77
2022/01/25 00:37:14;;;;;;;21.90;9.20;;;-0.60;99.90;;;-0.76;89.46;99374.50;171911;28;947;-77
2022/01/25 00:37:20;;;;;;;21.88;9.30;;;-0.60;99.90;;;-0.76;89.80;99371.84;172409;28;1434;-77
2022/01/25 00:37:26;;;;;;;22.98;9.35;;;-0.70;99.90;;;-0.81;89.70;99367.69;173245;28;997;-77
2022/01/25 00:37:32;;;;;;;22.80;9.60;;;-0.60;99.90;;;-0.77;89.87;99374.56;171814;28;1184;-77
2022/01/25 00:37:38;;;;;;;21.67;9.63;;;-0.60;99.90;;;-0.76;89.71;99377.13;171900;28;1240;-77
2022/01/25 00:37:44;;;;;;;21.43;9.87;;;-0.70;99.90;;;-0.81;89.98;99367.69;171786;28;1447;-76
2022/01/25 00:37:50;;;;;;;21.52;9.98;;;-0.70;99.90;;;-0.76;89.66;99382.44;173246;28;1275;-77
2022/01/25 00:37:56;;;;;;;20.16;9.70;;;-0.70;99.90;;;-0.74;89.98;99379.72;172571;28;962;-77
2022/01/25 00:38:02;;;;;;;20.97;9.23;;;-0.70;99.90;;;-0.72;90.18;99372.56;172515;28;1333;-76
2022/01/25 00:38:08;;;;;;;20.63;9.10;;;-0.70;99.90;;;-0.77;89.97;99374.56;172547;28;998;-77
2022/01/25 00:38:14;;;;;;;19.92;9.00;;;-0.70;99.90;;;-0.79;90.06;99366.72;173194;28;883;-77
2022/01/25 00:38:20;;;;;;;18.92;8.70;;;-0.70;99.90;;;-0.85;90.21;99351.13;172573;28;1313;-77
2022/01/25 00:38:26;;;;;;;19.55;8.80;;;-0.70;99.90;;;-1.06;90.26;99312.47;172545;28;1294;-77
2022/01/25 00:38:33;;;;;;;19.52;9.15;;;-0.70;99.90;;;-0.73;89.79;99381.44;174534;28;1227;-77
2022/01/25 00:38:39;;;;;;;20.16;9.20;;;-0.70;99.90;;;-0.76;89.86;99371.84;171841;28;1543;-77
2022/01/25 00:38:46;;;;;;;20.53;9.07;;;-0.70;99.90;;;-0.83;90.25;99359.00;172510;28;1456;-77
2022/01/25 00:38:55;;;;;;;20.10;8.77;;;-0.70;99.90;;;-0.73;90.09;99381.44;173799;28;1282;-77
2022/01/25 00:39:04;;;;;;;19.87;8.77;;;-0.70;99.90;;;-0.88;90.35;99354.75;173191;28;1608;-77
2022/01/25 00:39:10;;;;;;;20.00;8.47;;;-0.70;99.90;;;-0.72;90.09;99385.78;171944;28;871;-77
2022/01/25 00:39:16;;;;;;;20.20;8.55;;;-0.70;99.90;;;-0.72;90.58;99388.41;172341;28;1451;-77
2022/01/25 00:39:22;;;;;;;22.95;8.88;;;-0.70;99.90;;;-0.86;89.98;99359.97;173886;28;1258;-77
2022/01/25 00:39:28;;;;;;;23.00;8.52;;;-0.70;99.90;;;-0.82;90.08;99371.25;173840;28;1265;-77
2022/01/25 00:39:37;;;;;;;23.00;8.60;;;-0.70;99.90;;;-0.81;89.96;99372.97;172500;28;1293;-77
2022/01/25 00:39:43;;;;;;;22.40;8.60;;;-0.70;99.90;;;-0.84;90.50;99376.66;171858;28;951;-77
2022/01/25 00:39:49;;;;;;;20.38;8.57;;;-0.70;99.90;;;-0.76;90.09;99381.56;172649;28;871;-77
2022/01/25 00:39:55;;;;;;;19.35;8.50;;;-0.70;99.90;;;-0.81;90.09;99380.91;172576;28;958;-77
2022/01/25 00:40:01;;;;;;;18.40;8.50;;;-0.70;99.90;;;-0.93;90.12;99355.88;173093;28;1182;-77
2022/01/25 00:40:08;;;;;;;19.00;8.77;;;-0.70;99.90;;;-0.77;90.22;99388.63;173219;28;1447;-77
2022/01/25 00:40:14;;;;;;;18.70;8.63;;;-0.70;99.90;;;-0.83;90.54;99375.72;172938;28;1458;-77
2022/01/25 00:40:20;;;;;;;19.23;8.60;;;-0.70;99.90;;;-0.78;90.41;99388.72;173286;28;970;-77
2022/01/25 00:40:26;;;;;;;20.43;8.83;;;-0.70;99.90;;;-0.90;90.66;99367.19;172421;28;1293;-77
2022/01/25 00:40:32;;;;;;;21.17;8.70;;;-0.70;99.90;;;-0.86;90.48;99375.84;173310;28;982;-77
2022/01/25 00:40:38;;;;;;;20.02;8.70;;;-0.70;99.90;;;-0.89;90.11;99374.22;173872;28;1370;-77
2022/01/25 00:40:43;;;;;;;20.48;8.95;;;-0.70;99.90;;;-1.14;90.20;99328.66;172525;28;1307;-77
2022/01/25 00:40:50;;;;;;;20.60;9.10;;;-0.70;99.90;;;-0.92;90.11;99362.91;172569;28;819;-77
2022/01/25 00:40:56;;;;;;;20.50;9.40;;;-0.70;99.90;;;-0.98;90.23;99358.75;172540;28;923;-77
2022/01/25 00:41:03;;;;;;;19.53;9.60;;;-0.70;99.90;;;-0.84;90.08;99383.72;173195;28;1397;-77
2022/01/25 00:41:10;;;;;;;20.24;9.48;;;-0.70;99.90;;;-0.95;90.24;99361.28;172503;28;1410;-77
2022/01/25 00:41:19;;;;;;;18.67;9.23;;;-0.70;99.90;;;-0.83;90.07;99386.31;171780;28;899;-77
2022/01/25 00:41:26;;;;;;;18.89;9.16;;;-0.70;99.90;;;-0.83;90.39;99377.50;173110;28;1481;-77
2022/01/25 00:41:33;;;;;;;19.80;9.02;;;-0.70;99.90;;;-0.84;90.38;99376.66;174499;28;1457;-77
2022/01/25 00:41:39;;;;;;;20.53;9.03;;;-0.70;99.90;;;-0.93;90.49;99361.19;173812;28;1472;-77
2022/01/25 00:41:45;;;;;;;21.00;9.10;;;-0.70;99.90;;;-0.86;89.99;99370.56;173097;28;1217;-77
2022/01/25 00:41:51;;;;;;;21.10;9.05;;;-0.70;99.90;;;-0.88;89.91;99369.75;173838;28;1312;-77
2022/01/25 00:41:57;;;;;;;20.66;9.22;;;-0.70;99.90;;;-0.82;90.37;99382.69;173795;28;1354;-77
2022/01/25 00:42:09;;;;;;;20.03;9.13;;;-0.70;99.90;;;-0.80;90.04;99383.50;173933;28;1350;-77
2022/01/25 00:42:15;;;;;;;19.71;9.20;;;-0.70;99.90;;;-0.73;90.15;99390.25;173081;28;1350;-77
2022/01/25 00:42:21;;;;;;;20.90;9.10;;;-0.70;99.90;;;-0.74;90.13;99387.66;171841;28;1304;-77
2022/01/25 00:42:27;;;;;;;20.97;9.00;;;-0.70;99.90;;;-0.74;90.23;99388.50;172546;28;1081;-77
2022/01/25 00:42:33;;;;;;;20.92;9.02;;;-0.70;99.90;;;-0.80;90.02;99380.84;173875;28;1227;-77
2022/01/25 00:42:39;;;;;;;20.45;9.15;;;-0.70;99.90;;;-0.72;90.03;99389.28;173166;28;1262;-77
2022/01/25 00:42:45;;;;;;;18.98;8.85;;;-0.70;99.90;;;-0.87;90.28;99360.91;173911;28;1248;-77
2022/01/25 00:42:50;;;;;;;19.93;8.97;;;-0.70;99.90;;;-0.84;90.18;99365.22;173117;28;1280;-77
2022/01/25 00:42:56;;;;;;;20.05;8.82;;;-0.70;99.90;;;-0.76;89.74;99379.78;172468;28;1373;-77
2022/01/25 00:43:02;;;;;;;20.55;8.70;;;-0.70;99.90;;;-0.73;90.01;99392.88;173126;28;1236;-77
2022/01/25 00:43:08;;;;;;;21.60;8.75;;;-0.70;99.90;;;-0.70;90.15;99397.16;173379;28;1718;-77
2022/01/25 00:43:15;;;;;;;21.65;8.52;;;-0.70;99.90;;;-0.87;90.24;99360.91;173812;28;1358;-77
2022/01/25 00:43:23;;;;;;;19.86;8.30;;;-0.70;99.90;;;-0.80;90.33;99372.91;171832;28;1370;-77
2022/01/25 00:43:30;;;;;;;19.57;8.40;;;-0.70;99.90;;;-0.93;90.17;99346.19;172534;28;1505;-77
2022/01/25 00:43:36;;;;;;;18.47;8.17;;;-0.70;99.90;;;-0.76;89.90;99378.91;174485;28;1369;-77
2022/01/25 00:43:43;;;;;;;19.07;8.37;;;-0.70;99.90;;;-0.71;90.17;99388.34;173907;28;1298;-77
2022/01/25 00:43:50;;;;;;;19.34;8.44;;;-0.70;99.90;;;-0.83;90.26;99369.56;173807;28;1513;-77
2022/01/25 00:43:59;;;;;;;20.16;8.74;;;-0.70;99.90;;;-0.74;90.01;99379.72;174280;28;1627;-78
2022/01/25 00:44:06;;;;;;;21.31;9.03;;;-0.70;99.90;;;-0.71;90.27;99390.13;173800;28;1185;-77
2022/01/25 00:44:13;;;;;;;21.23;8.97;;;-0.70;99.90;;;-0.73;90.02;99378.78;172505;28;1302;-77
2022/01/25 00:44:19;;;;;;;20.83;9.10;;;-0.70;99.90;;;-0.71;90.34;99385.72;174671;28;942;-77
2022/01/25 00:44:30;;;;;;;20.57;9.00;;;-0.70;99.90;;;-0.69;90.06;99390.94;174636;28;847;-77
2022/01/25 00:44:39;;;;;;;19.37;9.17;;;-0.70;99.90;;;-0.70;90.39;99384.78;173889;28;1239;-77
2022/01/25 00:44:48;;;;;;;19.41;9.34;;;-0.70;99.90;;;-0.78;90.41;99367.56;173819;28;1373;-77
2022/01/25 00:44:55;;;;;;;18.76;9.09;;;-0.70;99.90;;;-1.03;89.95;99331.66;174484;28;1533;-77
2022/01/25 00:45:01;;;;;;;18.70;8.72;;;-0.70;99.90;;;-1.02;90.21;99322.81;172519;28;1283;-77
2022/01/25 00:45:10;;;;;;;18.10;8.40;;;-0.70;99.90;;;-0.75;90.04;99367.41;172929;28;1389;-77
2022/01/25 00:45:18;;;;;;;17.91;8.26;;;-0.70;99.90;;;-0.75;89.77;99372.72;173781;28;1602;-77
2022/01/25 00:45:28;;;;;;;18.90;8.43;;;-0.70;99.90;;;-0.66;89.92;99382.84;173841;28;1297;-77
2022/01/25 00:45:34;;;;;;;18.98;8.56;;;-0.70;99.90;;;-0.74;90.00;99371.78;172405;28;1473;-77
2022/01/25 00:45:40;;;;;;;18.17;8.27;;;-0.70;99.90;;;-0.74;89.89;99369.13;173812;28;2003;-77
2022/01/25 00:45:48;;;;;;;18.00;8.37;;;-0.70;99.90;;;-0.70;90.10;99376.00;173878;28;1282;-77
2022/01/25 00:45:59;;;;;;;17.37;8.27;;;-0.70;99.90;;;-0.83;89.74;99351.94;173258;28;848;-76
2022/01/25 00:46:09;;;;;;;17.59;8.38;;;-0.70;99.90;;;-0.72;89.88;99375.19;173863;28;1209;-77
2022/01/25 00:46:16;;;;;;;18.33;8.77;;;-0.70;99.90;;;-0.73;90.13;99365.56;174518;28;1453;-76
2022/01/25 00:46:23;;;;;;;19.26;9.08;;;-0.70;99.90;;;-0.67;89.67;99383.78;172529;28;1381;-76
2022/01/25 00:46:29;;;;;;;19.50;9.10;;;-0.70;99.90;;;-0.71;90.23;99380.44;171726;28;1405;-77
2022/01/25 00:46:36;;;;;;;19.20;8.73;;;-0.70;99.90;;;-0.77;90.00;99364.84;173184;28;1397;-77
2022/01/25 00:46:42;;;;;;;19.27;8.60;;;-0.70;99.90;;;-0.73;90.15;99376.16;173790;28;1510;-77
2022/01/25 00:46:48;;;;;;;18.50;8.45;;;-0.70;99.90;;;-0.75;90.12;99375.34;172501;28;1565;-77
2022/01/25 00:46:54;;;;;;;17.73;8.50;;;-0.70;99.90;;;-0.72;90.41;99378.69;172475;28;1388;-77
2022/01/25 00:47:01;;;;;;;17.73;8.35;;;-0.70;99.90;;;-0.89;90.16;99347.78;173230;28;857;-76
2022/01/25 00:47:08;;;;;;;17.34;8.50;;;-0.70;99.90;;;-0.72;89.87;99373.41;173199;28;1445;-77
2022/01/25 00:47:16;;;;;;;18.20;8.84;;;-0.70;99.90;;;-0.78;89.68;99362.28;173183;28;1465;-77
2022/01/25 00:47:24;;;;;;;18.43;8.67;;;-0.70;99.90;;;-0.92;89.95;99345.25;173165;28;1419;-77
2022/01/25 00:47:30;;;;;;;18.10;8.64;;;-0.70;99.90;;;-0.72;90.18;99373.41;171786;28;1557;-77
2022/01/25 00:47:40;;;;;;;19.35;8.75;;;-0.70;99.90;;;-0.79;90.21;99361.44;171900;28;986;-77
2022/01/25 00:47:49;;;;;;;17.80;8.50;;;-0.70;99.90;;;-0.88;90.14;99346.81;172521;28;1438;-77
2022/01/25 00:47:55;;;;;;;18.89;8.77;;;-0.70;99.90;;;-0.72;89.75;99373.41;173181;28;1066;-77
2022/01/25 00:48:04;;;;;;;19.40;8.98;;;-0.70;99.90;;;-0.74;89.84;99366.50;172456;28;1371;-77
2022/01/25 00:48:18;;;;;;;18.50;8.71;;;-0.70;99.90;;;-0.76;90.19;99365.69;172396;28;1497;-77
2022/01/25 00:48:49;;;;;;;18.58;8.59;;;-0.70;99.90;;;-0.79;89.95;99361.44;173952;28;1212;-77
2022/01/25 00:49:02;;;;;;;19.24;8.91;;;-0.70;99.90;;;-0.76;89.98;99365.69;171902;28;1220;-77
2022/01/25 00:49:09;;;;;;;19.79;9.06;;;-0.70;99.90;;;-0.73;90.19;99368.22;173137;28;1748;-77
2022/01/25 00:49:25;;;;;;;19.90;9.06;;;-0.70;99.90;;;-0.71;90.03;99377.78;173112;28;1507;-77
2022/01/25 00:49:33;;;;;;;20.24;8.74;;;-0.70;99.90;;;-0.80;89.94;99359.69;172594;28;1245;-77
2022/01/25 00:49:40;;;;;;;18.00;8.25;;;-0.70;99.90;;;-0.80;89.70;99361.50;173158;28;1445;-77
2022/01/25 00:49:51;;;;;;;17.77;8.30;;;-0.70;99.90;;;-0.75;89.60;99370.06;173848;28;1527;-77
2022/01/25 00:49:57;;;;;;;18.56;8.33;;;-0.70;99.90;;;-0.85;89.89;99353.78;172435;28;1472;-77
2022/01/25 00:50:13;;;;;;;19.80;8.80;;;-0.70;99.90;;;-0.74;90.27;99369.13;173071;28;1338;-77
2022/01/25 00:50:19;;;;;;;20.49;9.25;;;-0.70;99.90;;;-0.79;89.83;99358.78;172442;28;1366;-77
2022/01/25 00:50:31;;;;;;;20.50;9.80;;;-0.70;99.90;;;-0.88;89.88;99349.47;172514;28;1525;-77
2022/01/25 00:50:40;;;;;;;20.56;9.69;;;-0.70;99.90;;;-0.77;90.08;99367.47;172449;28;2742;-77
2022/01/25 00:50:47;;;;;;;20.57;9.50;;;-0.70;99.90;;;-0.76;90.04;99369.19;173180;28;1506;-77
2022/01/25 00:51:02;;;;;;;19.55;9.45;;;-0.70;99.90;;;-0.70;89.99;99381.28;172471;28;1338;-77
2022/01/25 00:51:58;;;;;;;19.44;9.15;;;-0.70;99.90;;;-0.77;89.82;99372.78;173934;28;1202;-77
2022/01/25 00:52:18;;;;;;;20.16;9.01;;;-0.70;99.90;;;-0.89;89.92;99353.06;172399;28;1240;-77
2022/01/25 00:54:01;;;;;;;17.17;8.48;;;-0.70;99.90;;;-0.75;90.08;99370.94;172561;28;1204;-76
2022/01/25 00:54:26;;;;;;;19.25;9.19;;;-0.70;99.90;;;-0.77;90.11;99366.63;172899;28;1741;-77
2022/01/25 00:54:34;;;;;;;19.16;8.79;;;-0.70;99.90;;;-0.70;90.11;99370.72;172364;28;1702;-77
2022/01/25 00:54:43;;;;;;;18.83;7.93;;;-0.70;99.90;;;-0.86;89.90;99352.91;173287;28;875;-77
2022/01/25 00:54:52;;;;;;;18.31;7.80;;;-0.70;99.90;;;-0.74;90.22;99361.22;171880;28;1061;-77
2022/01/25 00:54:59;;;;;;;18.62;8.00;;;-0.70;99.90;;;-0.74;90.16;99367.34;173866;28;1337;-77
2022/01/25 00:55:06;;;;;;;19.02;8.30;;;-0.70;99.90;;;-0.92;89.98;99337.31;173090;28;1407;-76
2022/01/25 00:55:14;;;;;;;17.40;8.23;;;-0.70;99.90;;;-0.70;90.27;99376.00;171840;28;1425;-77
2022/01/25 00:55:20;;;;;;;18.60;8.46;;;-0.70;99.90;;;-0.90;90.42;99335.47;173941;28;1234;-77
2022/01/25 00:55:26;;;;;;;18.60;8.48;;;-0.70;99.90;;;-0.70;90.38;99370.72;173825;28;1234;-77
2022/01/25 00:55:33;;;;;;;18.60;8.40;;;-0.70;99.90;;;-0.78;90.30;99351.72;171809;28;1357;-77
2022/01/25 00:55:39;;;;;;;19.57;8.60;;;-0.70;99.90;;;-0.79;89.91;99357.91;173795;28;1293;-77
2022/01/25 00:55:45;;;;;;;20.23;8.70;;;-0.70;99.90;;;-0.78;90.11;99357.84;173900;28;978;-77
2022/01/25 00:55:51;;;;;;;19.45;8.57;;;-0.70;99.90;;;-0.75;89.90;99359.50;172511;28;891;-77
2022/01/25 00:55:57;;;;;;;19.63;8.52;;;-0.70;99.90;;;-0.69;90.34;99364.50;171854;28;1202;-77
2022/01/25 00:56:03;;;;;;;19.70;8.73;;;-0.70;99.90;;;-0.75;90.13;99356.84;173157;28;1224;-77
2022/01/25 00:56:09;;;;;;;19.53;8.57;;;-0.70;99.90;;;-0.84;90.28;99341.41;173824;28;1308;-77
2022/01/25 00:56:15;;;;;;;18.83;8.30;;;-0.70;99.90;;;-0.80;89.93;99350.91;173258;28;820;-77
2022/01/25 00:56:23;;;;;;;19.38;8.40;;;-0.70;99.90;;;-0.82;90.10;99355.41;173220;28;982;-76
2022/01/25 00:56:46;;;;;;;18.77;8.43;;;-0.70;99.90;;;-0.79;90.06;99356.13;173778;28;1371;-77
2022/01/25 00:56:52;;;;;;;18.31;8.52;;;-0.70;99.90;;;-1.01;90.30;99310.47;173735;28;1465;-77
2022/01/25 00:56:59;;;;;;;18.80;9.03;;;-0.70;99.90;;;-0.79;90.06;99348.22;173177;28;1554;-77
2022/01/25 00:57:06;;;;;;;19.62;9.04;;;-0.70;99.90;;;-0.78;90.01;99352.56;173116;28;1496;-77
2022/01/25 00:57:12;;;;;;;20.97;9.23;;;-0.70;99.90;;;-0.90;90.29;99339.91;173179;28;1420;-77
2022/01/25 00:57:19;;;;;;;19.98;8.88;;;-0.70;99.90;;;-0.80;90.06;99348.25;173202;28;1228;-77
2022/01/25 00:57:25;;;;;;;19.53;9.07;;;-0.70;99.90;;;-0.87;90.38;99337.09;174601;28;1075;-77
2022/01/25 00:57:31;;;;;;;20.30;9.57;;;-0.70;99.90;;;-0.92;90.13;99325.88;173917;28;847;-77
2022/01/25 00:57:37;;;;;;;19.25;9.38;;;-0.70;99.90;;;-0.82;90.15;99350.97;173194;28;1272;-77
2022/01/25 00:57:43;;;;;;;18.57;9.30;;;-0.70;99.90;;;-0.92;90.21;99331.19;173143;28;1268;-77
2022/01/25 00:57:49;;;;;;;18.70;9.50;;;-0.70;99.90;;;-0.71;89.97;99363.69;173218;28;1301;-77
2022/01/25 00:57:55;;;;;;;17.88;9.27;;;-0.70;99.90;;;-0.75;89.93;99356.84;173168;28;1195;-77
2022/01/25 00:58:02;;;;;;;17.02;9.00;;;-0.70;99.90;;;-0.73;89.72;99368.22;173051;28;1323;-77
2022/01/25 00:58:08;;;;;;;16.58;9.00;;;-0.70;99.90;;;-0.71;89.90;99371.63;173257;28;881;-77
2022/01/25 00:58:14;;;;;;;16.25;8.90;;;-0.80;99.90;;;-0.78;90.18;99362.28;173155;28;1192;-77
2022/01/25 00:58:20;;;;;;;16.50;8.73;;;-0.70;99.90;;;-0.76;89.98;99358.63;173135;28;1172;-77
2022/01/25 00:58:26;;;;;;;16.52;8.52;;;-0.70;99.90;;;-0.78;90.14;99355.22;173051;28;1279;-77
2022/01/25 00:58:32;;;;;;;16.93;8.57;;;-0.70;99.90;;;-0.88;90.00;99338.03;172464;28;1495;-77
2022/01/25 00:58:37;;;;;;;17.70;8.63;;;-0.70;99.90;;;-0.85;89.94;99343.19;172298;28;1689;-77
2022/01/25 00:58:43;;;;;;;18.92;8.80;;;-0.70;99.90;;;-0.75;90.02;99363.00;173126;28;896;-77
2022/01/25 00:58:50;;;;;;;19.02;8.88;;;-0.80;99.90;;;-0.85;89.79;99340.56;172471;28;1342;-77
2022/01/25 00:58:59;;;;;;;19.60;9.00;;;-0.70;99.90;;;-0.95;89.73;99323.41;172073;28;1495;-77
2022/01/25 00:59:12;;;;;;;21.50;9.11;;;-0.70;99.90;;;-0.78;89.85;99354.34;172992;28;2532;-77
2022/01/25 00:59:31;;;;;;;22.96;9.38;;;-0.70;99.90;;;-0.73;89.75;99362.94;171792;28;1503;-77
2022/01/25 00:59:37;;;;;;;22.52;9.48;;;-0.70;99.90;;;-0.77;89.96;99362.19;172337;28;1357;-77
2022/01/25 00:59:43;;;;;;;20.23;9.20;;;-0.70;99.90;;;-0.78;89.64;99354.34;173262;28;863;-77
2022/01/25 00:59:49;;;;;;;19.67;9.07;;;-0.70;99.90;;;-0.73;90.04;99369.09;172517;28;1485;-77
2022/01/25 00:59:55;;;;;;;20.20;9.13;;;-0.80;99.90;;;-0.88;89.79;99335.38;172641;28;1402;-77
2022/01/25 01:00:04;;;;;;;19.83;8.90;;;-0.80;99.90;;;-0.84;89.56;99344.91;172468;28;1165;-77
2022/01/25 01:00:12;;;;;;;19.37;9.17;;;-0.70;99.90;;;-0.73;89.67;99360.28;172227;28;1462;-77
2022/01/25 01:00:18;;;;;;;18.53;9.03;;;-0.70;99.90;;;-0.79;89.54;99356.13;173165;28;1429;-77
2022/01/25 01:00:25;;;;;;;18.90;9.15;;;-0.70;99.90;;;-0.76;89.80;99357.75;173063;28;1561;-77
2022/01/25 01:00:32;;;;;;;20.37;9.30;;;-0.70;99.90;;;-0.79;89.80;99350.00;174014;28;836;-77
2022/01/25 01:00:37;;;;;;;19.70;8.90;;;-0.70;99.90;;;-0.83;89.94;99340.50;173898;28;891;-77
2022/01/25 01:00:43;;;;;;;20.02;9.00;;;-0.70;99.90;;;-0.84;90.05;99347.56;173217;28;1022;-77
2022/01/25 01:00:51;;;;;;;20.30;8.93;;;-0.70;99.90;;;-0.81;89.82;99347.41;172556;28;1253;-77
2022/01/25 01:00:57;;;;;;;19.28;8.87;;;-0.70;99.90;;;-0.73;90.10;99361.16;172501;28;1443;-77
2022/01/25 01:01:03;;;;;;;19.37;9.10;;;-0.70;99.90;;;-0.81;89.96;99355.34;171900;28;958;-77
2022/01/25 01:01:09;;;;;;;19.77;9.30;;;-0.80;99.90;;;-0.74;89.77;99366.50;173750;28;1172;-77
2022/01/25 01:01:16;;;;;;;19.55;9.05;;;-0.70;99.90;;;-0.80;90.04;99350.91;172546;28;1006;-77
2022/01/25 01:01:24;;;;;;;20.62;9.28;;;-0.70;99.90;;;-0.77;90.17;99356.03;173820;28;1429;-77
2022/01/25 01:01:32;;;;;;;20.60;9.03;;;-0.70;99.90;;;-0.87;89.71;99343.25;172452;28;1271;-77
2022/01/25 01:01:40;;;;;;;17.80;8.52;;;-0.80;99.90;;;-0.78;90.17;99349.94;172482;28;1445;-77
2022/01/25 01:01:50;;;;;;;17.37;8.53;;;-0.70;99.90;;;-0.76;90.08;99355.97;173169;28;1559;-77
2022/01/25 01:02:04;;;;;;;16.66;8.54;;;-0.70;99.90;;;-1.22;89.88;99275.31;173744;28;1679;-77
2022/01/25 01:02:15;;;;;;;17.99;8.84;;;-0.70;99.90;;;-0.80;89.96;99351.78;173774;28;1516;-77
2022/01/25 01:02:21;;;;;;;18.77;8.87;;;-0.70;99.90;;;-0.88;90.08;99333.59;173207;28;1496;-77
2022/01/25 01:02:27;;;;;;;18.75;8.80;;;-0.70;99.90;;;-0.96;89.90;99317.25;173202;28;963;-77
2022/01/25 01:02:33;;;;;;;19.58;9.00;;;-0.70;99.90;;;-0.69;90.10;99372.44;172430;28;1418;-77
2022/01/25 01:02:39;;;;;;;19.15;8.70;;;-0.70;99.90;;;-0.80;89.93;99349.13;172512;28;1248;-77
2022/01/25 01:02:45;;;;;;;19.65;8.85;;;-0.70;99.90;;;-0.74;90.43;99359.44;172382;28;1351;-77
2022/01/25 01:02:52;;;;;;;19.63;8.80;;;-0.70;99.90;;;-0.73;90.21;99358.50;171863;28;995;-77
2022/01/25 01:02:58;;;;;;;19.56;8.66;;;-0.70;99.90;;;-0.77;89.96;99353.41;172452;28;1665;-77
2022/01/25 01:03:04;;;;;;;18.73;8.55;;;-0.70;99.90;;;-0.73;90.19;99355.84;172493;28;1227;-77
2022/01/25 01:03:09;;;;;;;18.25;8.88;;;-0.70;99.90;;;-0.70;90.15;99362.78;172539;28;1330;-77
2022/01/25 01:03:16;;;;;;;17.45;8.93;;;-0.70;99.90;;;-0.68;90.16;99369.72;172494;28;1374;-77